Aviation Digital Data Service (ADDS)

Output produced by METARs form (1351 UTC 23 January 2019)
found at http://www.aviationweather.gov/metar/data/
 
METAR text: LOWI 231320Z VRB01KT 9999 OVC090 M01/M09 Q0993 NOSIG
Conditions at: LOWI (INNSBRUCK AIRPOR, AT) observed 1320 UTC 23 January 2019
Temperature: -1.0°C (30°F)
Dewpoint: -9.0°C (16°F) [RH = 55%]
Pressure (altimeter): 29.32 inches Hg (993.0 mb)
Winds: variable direction winds at 1 MPH (1 knots; 0.5 m/s)
Visibility: 6 or more miles (10+ km)
Ceiling: 9000 feet AGL
Clouds: overcast cloud deck at 9000 feet AGL
Weather: no significant weather observed at this time

METAR text: LOWI 231250Z VRB01KT 9999 OVC090 M02/M09 Q0993 NOSIG
Conditions at: LOWI (INNSBRUCK AIRPOR, AT) observed 1250 UTC 23 January 2019
Temperature: -2.0°C (28°F)
Dewpoint: -9.0°C (16°F) [RH = 59%]
Pressure (altimeter): 29.32 inches Hg (993.0 mb)
Winds: variable direction winds at 1 MPH (1 knots; 0.5 m/s)
Visibility: 6 or more miles (10+ km)
Ceiling: 9000 feet AGL
Clouds: overcast cloud deck at 9000 feet AGL
Weather: no significant weather observed at this time

METAR text: LOWI 231220Z VRB02KT 9999 FEW070 BKN100 M02/M09 Q0993 NOSIG
Conditions at: LOWI (INNSBRUCK AIRPOR, AT) observed 1220 UTC 23 January 2019
Temperature: -2.0°C (28°F)
Dewpoint: -9.0°C (16°F) [RH = 59%]
Pressure (altimeter): 29.32 inches Hg (993.0 mb)
Winds: variable direction winds at 2 MPH (2 knots; 1.0 m/s)
Visibility: 6 or more miles (10+ km)
Ceiling: 10000 feet AGL
Clouds: few clouds at 7000 feet AGL
broken clouds at 10000 feet AGL
Weather: no significant weather observed at this time

METAR text: LOWI 231150Z VRB02KT 9999 FEW070 BKN100 M03/M09 Q0994 NOSIG
Conditions at: LOWI (INNSBRUCK AIRPOR, AT) observed 1150 UTC 23 January 2019
Temperature: -3.0°C (27°F)
Dewpoint: -9.0°C (16°F) [RH = 63%]
Pressure (altimeter): 29.35 inches Hg (994.0 mb)
Winds: variable direction winds at 2 MPH (2 knots; 1.0 m/s)
Visibility: 6 or more miles (10+ km)
Ceiling: 10000 feet AGL
Clouds: few clouds at 7000 feet AGL
broken clouds at 10000 feet AGL
Weather: no significant weather observed at this time

METAR text: LOWI 231120Z 28006KT 9999 FEW070 BKN100 M03/M10 Q0994 NOSIG
Conditions at: LOWI (INNSBRUCK AIRPOR, AT) observed 1120 UTC 23 January 2019
Temperature: -3.0°C (27°F)
Dewpoint: -10.0°C (14°F) [RH = 58%]
Pressure (altimeter): 29.35 inches Hg (994.0 mb)
Winds: from the W (280 degrees) at 7 MPH (6 knots; 3.1 m/s)
Visibility: 6 or more miles (10+ km)
Ceiling: 10000 feet AGL
Clouds: few clouds at 7000 feet AGL
broken clouds at 10000 feet AGL
Weather: no significant weather observed at this time

METAR text: LOWI 231050Z 28007KT 9999 FEW070 BKN090 M04/M09 Q0994 NOSIG
Conditions at: LOWI (INNSBRUCK AIRPOR, AT) observed 1050 UTC 23 January 2019
Temperature: -4.0°C (25°F)
Dewpoint: -9.0°C (16°F) [RH = 68%]
Pressure (altimeter): 29.35 inches Hg (994.0 mb)
Winds: from the W (280 degrees) at 8 MPH (7 knots; 3.6 m/s)
Visibility: 6 or more miles (10+ km)
Ceiling: 9000 feet AGL
Clouds: few clouds at 7000 feet AGL
broken clouds at 9000 feet AGL
Weather: no significant weather observed at this time

METAR text: LOWI 231020Z 26008KT 9999 OVC090 M04/M10 Q0995 NOSIG
Conditions at: LOWI (INNSBRUCK AIRPOR, AT) observed 1020 UTC 23 January 2019
Temperature: -4.0°C (25°F)
Dewpoint: -10.0°C (14°F) [RH = 63%]
Pressure (altimeter): 29.38 inches Hg (995.0 mb)
Winds: from the W (260 degrees) at 9 MPH (8 knots; 4.1 m/s)
Visibility: 6 or more miles (10+ km)
Ceiling: 9000 feet AGL
Clouds: overcast cloud deck at 9000 feet AGL
Weather: no significant weather observed at this time

METAR text: LOWI 230950Z 27005KT 9999 SCT100 BKN140 M05/M09 Q0995 NOSIG
Conditions at: LOWI (INNSBRUCK AIRPOR, AT) observed 0950 UTC 23 January 2019
Temperature: -5.0°C (23°F)
Dewpoint: -9.0°C (16°F) [RH = 73%]
Pressure (altimeter): 29.38 inches Hg (995.0 mb)
Winds: from the W (270 degrees) at 6 MPH (5 knots; 2.6 m/s)
Visibility: 6 or more miles (10+ km)
Ceiling: 14000 feet AGL
Clouds: scattered clouds at 10000 feet AGL
broken clouds at 14000 feet AGL
Weather: no significant weather observed at this time

METAR text: LOWI 230920Z 27004KT 9999 BKN100 M06/M10 Q0996 NOSIG
Conditions at: LOWI (INNSBRUCK AIRPOR, AT) observed 0920 UTC 23 January 2019
Temperature: -6.0°C (21°F)
Dewpoint: -10.0°C (14°F) [RH = 73%]
Pressure (altimeter): 29.41 inches Hg (996.0 mb)
Winds: from the W (270 degrees) at 5 MPH (4 knots; 2.1 m/s)
Visibility: 6 or more miles (10+ km)
Ceiling: 10000 feet AGL
Clouds: broken clouds at 10000 feet AGL
Weather: no significant weather observed at this time

METAR text: LOWI 230850Z 27005KT 9999 SCT100 SCT300 M06/M10 Q0996 NOSIG
Conditions at: LOWI (INNSBRUCK AIRPOR, AT) observed 0850 UTC 23 January 2019
Temperature: -6.0°C (21°F)
Dewpoint: -10.0°C (14°F) [RH = 73%]
Pressure (altimeter): 29.41 inches Hg (996.0 mb)
Winds: from the W (270 degrees) at 6 MPH (5 knots; 2.6 m/s)
Visibility: 6 or more miles (10+ km)
Ceiling: at least 12,000 feet AGL
Clouds: scattered clouds at 10000 feet AGL
scattered clouds at 30000 feet AGL
Weather: no significant weather observed at this time

METAR text: LOWI 230820Z 27004KT 9999 SCT100 SCT300 M06/M10 Q0996 NOSIG
Conditions at: LOWI (INNSBRUCK AIRPOR, AT) observed 0820 UTC 23 January 2019
Temperature: -6.0°C (21°F)
Dewpoint: -10.0°C (14°F) [RH = 73%]
Pressure (altimeter): 29.41 inches Hg (996.0 mb)
Winds: from the W (270 degrees) at 5 MPH (4 knots; 2.1 m/s)
Visibility: 6 or more miles (10+ km)
Ceiling: at least 12,000 feet AGL
Clouds: scattered clouds at 10000 feet AGL
scattered clouds at 30000 feet AGL
Weather: no significant weather observed at this time

METAR text: LOWI 230750Z 26004KT 9999 BKN100 M07/M10 Q0997 NOSIG
Conditions at: LOWI (INNSBRUCK AIRPOR, AT) observed 0750 UTC 23 January 2019
Temperature: -7.0°C (19°F)
Dewpoint: -10.0°C (14°F) [RH = 79%]
Pressure (altimeter): 29.44 inches Hg (997.0 mb)
Winds: from the W (260 degrees) at 5 MPH (4 knots; 2.1 m/s)
Visibility: 6 or more miles (10+ km)
Ceiling: 10000 feet AGL
Clouds: broken clouds at 10000 feet AGL
Weather: no significant weather observed at this time

METAR text: LOWI 230720Z 26003KT 9999 BKN100 M07/M09 Q0997 NOSIG
Conditions at: LOWI (INNSBRUCK AIRPOR, AT) observed 0720 UTC 23 January 2019
Temperature: -7.0°C (19°F)
Dewpoint: -9.0°C (16°F) [RH = 86%]
Pressure (altimeter): 29.44 inches Hg (997.0 mb)
Winds: from the W (260 degrees) at 3 MPH (3 knots; 1.5 m/s)
Visibility: 6 or more miles (10+ km)
Ceiling: 10000 feet AGL
Clouds: broken clouds at 10000 feet AGL
Weather: no significant weather observed at this time

METAR text: LOWI 230650Z VRB01KT 9999 OVC100 M08/M11 Q0997 NOSIG
Conditions at: LOWI (INNSBRUCK AIRPOR, AT) observed 0650 UTC 23 January 2019
Temperature: -8.0°C (18°F)
Dewpoint: -11.0°C (12°F) [RH = 79%]
Pressure (altimeter): 29.44 inches Hg (997.0 mb)
Winds: variable direction winds at 1 MPH (1 knots; 0.5 m/s)
Visibility: 6 or more miles (10+ km)
Ceiling: 10000 feet AGL
Clouds: overcast cloud deck at 10000 feet AGL
Weather: no significant weather observed at this time

METAR text: LOWI 230620Z 26002KT 9999 OVC100 M08/M11 Q0997 NOSIG
Conditions at: LOWI (INNSBRUCK AIRPOR, AT) observed 0620 UTC 23 January 2019
Temperature: -8.0°C (18°F)
Dewpoint: -11.0°C (12°F) [RH = 79%]
Pressure (altimeter): 29.44 inches Hg (997.0 mb)
Winds: from the W (260 degrees) at 2 MPH (2 knots; 1.0 m/s)
Visibility: 6 or more miles (10+ km)
Ceiling: 10000 feet AGL
Clouds: overcast cloud deck at 10000 feet AGL
Weather: no significant weather observed at this time

METAR text: LOWI 230550Z 27003KT 9999 OVC100 M09/M11 Q0997 NOSIG
Conditions at: LOWI (INNSBRUCK AIRPOR, AT) observed 0550 UTC 23 January 2019
Temperature: -9.0°C (16°F)
Dewpoint: -11.0°C (12°F) [RH = 85%]
Pressure (altimeter): 29.44 inches Hg (997.0 mb)
Winds: from the W (270 degrees) at 3 MPH (3 knots; 1.5 m/s)
Visibility: 6 or more miles (10+ km)
Ceiling: 10000 feet AGL
Clouds: overcast cloud deck at 10000 feet AGL
Weather: no significant weather observed at this time

METAR text: LOWI 230520Z VRB01KT 9999 OVC100 M08/M10 Q0997 NOSIG
Conditions at: LOWI (INNSBRUCK AIRPOR, AT) observed 0520 UTC 23 January 2019
Temperature: -8.0°C (18°F)
Dewpoint: -10.0°C (14°F) [RH = 85%]
Pressure (altimeter): 29.44 inches Hg (997.0 mb)
Winds: variable direction winds at 1 MPH (1 knots; 0.5 m/s)
Visibility: 6 or more miles (10+ km)
Ceiling: 10000 feet AGL
Clouds: overcast cloud deck at 10000 feet AGL
Weather: no significant weather observed at this time

METAR text: LOWI 230450Z VRB02KT 9999 OVC100 M08/M10 Q0997 NOSIG
Conditions at: LOWI (INNSBRUCK AIRPOR, AT) observed 0450 UTC 23 January 2019
Temperature: -8.0°C (18°F)
Dewpoint: -10.0°C (14°F) [RH = 85%]
Pressure (altimeter): 29.44 inches Hg (997.0 mb)
Winds: variable direction winds at 2 MPH (2 knots; 1.0 m/s)
Visibility: 6 or more miles (10+ km)
Ceiling: 10000 feet AGL
Clouds: overcast cloud deck at 10000 feet AGL
Weather: no significant weather observed at this time

METAR text: LOWI 230420Z AUTO 00000KT 9999 FEW090 BKN110 M07/M09 Q0998
Conditions at: LOWI (INNSBRUCK AIRPOR, AT) observed 0420 UTC 23 January 2019
Temperature: -7.0°C (19°F)
Dewpoint: -9.0°C (16°F) [RH = 86%]
Pressure (altimeter): 29.47 inches Hg (998.0 mb)
Winds: calm
Visibility: 6 or more miles (10+ km)
Ceiling: 11000 feet AGL
Clouds: few clouds at 9000 feet AGL
broken clouds at 11000 feet AGL
Weather: no significant weather observed at this time

METAR text: LOWI 230350Z AUTO VRB01KT 9999 FEW090 BKN110 M06/M09 Q0998
Conditions at: LOWI (INNSBRUCK AIRPOR, AT) observed 0350 UTC 23 January 2019
Temperature: -6.0°C (21°F)
Dewpoint: -9.0°C (16°F) [RH = 79%]
Pressure (altimeter): 29.47 inches Hg (998.0 mb)
Winds: variable direction winds at 1 MPH (1 knots; 0.5 m/s)
Visibility: 6 or more miles (10+ km)
Ceiling: 11000 feet AGL
Clouds: few clouds at 9000 feet AGL
broken clouds at 11000 feet AGL
Weather: no significant weather observed at this time

METAR text: LOWI 230320Z AUTO VRB01KT 9999 FEW100 BKN110 M07/M10 Q0998
Conditions at: LOWI (INNSBRUCK AIRPOR, AT) observed 0320 UTC 23 January 2019
Temperature: -7.0°C (19°F)
Dewpoint: -10.0°C (14°F) [RH = 79%]
Pressure (altimeter): 29.47 inches Hg (998.0 mb)
Winds: variable direction winds at 1 MPH (1 knots; 0.5 m/s)
Visibility: 6 or more miles (10+ km)
Ceiling: 11000 feet AGL
Clouds: few clouds at 10000 feet AGL
broken clouds at 11000 feet AGL
Weather: no significant weather observed at this time

METAR text: LOWI 230250Z AUTO VRB01KT 9999 FEW100 BKN110 M07/M09 Q0999
Conditions at: LOWI (INNSBRUCK AIRPOR, AT) observed 0250 UTC 23 January 2019
Temperature: -7.0°C (19°F)
Dewpoint: -9.0°C (16°F) [RH = 86%]
Pressure (altimeter): 29.50 inches Hg (999.0 mb)
Winds: variable direction winds at 1 MPH (1 knots; 0.5 m/s)
Visibility: 6 or more miles (10+ km)
Ceiling: 11000 feet AGL
Clouds: few clouds at 10000 feet AGL
broken clouds at 11000 feet AGL
Weather: no significant weather observed at this time

METAR text: LOWI 230220Z AUTO 24002KT 9999 FEW100 BKN110 M07/M09 Q0999
Conditions at: LOWI (INNSBRUCK AIRPOR, AT) observed 0220 UTC 23 January 2019
Temperature: -7.0°C (19°F)
Dewpoint: -9.0°C (16°F) [RH = 86%]
Pressure (altimeter): 29.50 inches Hg (999.0 mb)
Winds: from the WSW (240 degrees) at 2 MPH (2 knots; 1.0 m/s)
Visibility: 6 or more miles (10+ km)
Ceiling: 11000 feet AGL
Clouds: few clouds at 10000 feet AGL
broken clouds at 11000 feet AGL
Weather: no significant weather observed at this time

METAR text: LOWI 230150Z AUTO VRB01KT 9999 FEW090 SCT100 BKN110 M07/M09 Q0999
Conditions at: LOWI (INNSBRUCK AIRPOR, AT) observed 0150 UTC 23 January 2019
Temperature: -7.0°C (19°F)
Dewpoint: -9.0°C (16°F) [RH = 86%]
Pressure (altimeter): 29.50 inches Hg (999.0 mb)
Winds: variable direction winds at 1 MPH (1 knots; 0.5 m/s)
Visibility: 6 or more miles (10+ km)
Ceiling: 11000 feet AGL
Clouds: few clouds at 9000 feet AGL
scattered clouds at 10000 feet AGL
broken clouds at 11000 feet AGL
Weather: no significant weather observed at this time

METAR text: LOWI 230120Z AUTO VRB01KT 9999 FEW100 BKN110 M07/M10 Q1000
Conditions at: LOWI (INNSBRUCK AIRPOR, AT) observed 0120 UTC 23 January 2019
Temperature: -7.0°C (19°F)
Dewpoint: -10.0°C (14°F) [RH = 79%]
Pressure (altimeter): 29.53 inches Hg (1000.0 mb)
Winds: variable direction winds at 1 MPH (1 knots; 0.5 m/s)
Visibility: 6 or more miles (10+ km)
Ceiling: 11000 feet AGL
Clouds: few clouds at 10000 feet AGL
broken clouds at 11000 feet AGL
Weather: no significant weather observed at this time

METAR text: LOWI 230050Z AUTO VRB01KT 9999 FEW100 BKN110 M07/M10 Q1000
Conditions at: LOWI (INNSBRUCK AIRPOR, AT) observed 0050 UTC 23 January 2019
Temperature: -7.0°C (19°F)
Dewpoint: -10.0°C (14°F) [RH = 79%]
Pressure (altimeter): 29.53 inches Hg (1000.0 mb)
Winds: variable direction winds at 1 MPH (1 knots; 0.5 m/s)
Visibility: 6 or more miles (10+ km)
Ceiling: 11000 feet AGL
Clouds: few clouds at 10000 feet AGL
broken clouds at 11000 feet AGL
Weather: no significant weather observed at this time

METAR text: LOWI 230020Z AUTO 00000KT 9999 FEW100 OVC110 M07/M10 Q1000
Conditions at: LOWI (INNSBRUCK AIRPOR, AT) observed 0020 UTC 23 January 2019
Temperature: -7.0°C (19°F)
Dewpoint: -10.0°C (14°F) [RH = 79%]
Pressure (altimeter): 29.53 inches Hg (1000.0 mb)
Winds: calm
Visibility: 6 or more miles (10+ km)
Ceiling: 11000 feet AGL
Clouds: few clouds at 10000 feet AGL
overcast cloud deck at 11000 feet AGL
Weather: no significant weather observed at this time

METAR text: LOWI 222350Z AUTO 14002KT 9999 OVC120 M07/M10 Q1000
Conditions at: LOWI (INNSBRUCK AIRPOR, AT) observed 2350 UTC 22 January 2019
Temperature: -7.0°C (19°F)
Dewpoint: -10.0°C (14°F) [RH = 79%]
Pressure (altimeter): 29.53 inches Hg (1000.0 mb)
Winds: from the SE (140 degrees) at 2 MPH (2 knots; 1.0 m/s)
Visibility: 6 or more miles (10+ km)
Ceiling: 12000 feet AGL
Clouds: overcast cloud deck at 12000 feet AGL
Weather: no significant weather observed at this time

METAR text: LOWI 222320Z AUTO VRB01KT 9999 FEW120 BKN130 M08/M10 Q1001
Conditions at: LOWI (INNSBRUCK AIRPOR, AT) observed 2320 UTC 22 January 2019
Temperature: -8.0°C (18°F)
Dewpoint: -10.0°C (14°F) [RH = 85%]
Pressure (altimeter): 29.56 inches Hg (1001.0 mb)
Winds: variable direction winds at 1 MPH (1 knots; 0.5 m/s)
Visibility: 6 or more miles (10+ km)
Ceiling: 13000 feet AGL
Clouds: few clouds at 12000 feet AGL
broken clouds at 13000 feet AGL
Weather: no significant weather observed at this time

METAR text: LOWI 222250Z AUTO VRB01KT 9999 FEW110 BKN130 M08/M10 Q1001
Conditions at: LOWI (INNSBRUCK AIRPOR, AT) observed 2250 UTC 22 January 2019
Temperature: -8.0°C (18°F)
Dewpoint: -10.0°C (14°F) [RH = 85%]
Pressure (altimeter): 29.56 inches Hg (1001.0 mb)
Winds: variable direction winds at 1 MPH (1 knots; 0.5 m/s)
Visibility: 6 or more miles (10+ km)
Ceiling: 13000 feet AGL
Clouds: few clouds at 11000 feet AGL
broken clouds at 13000 feet AGL
Weather: no significant weather observed at this time

METAR text: LOWI 222220Z AUTO VRB02KT 9999 SCT150 M08/M10 Q1001
Conditions at: LOWI (INNSBRUCK AIRPOR, AT) observed 2220 UTC 22 January 2019
Temperature: -8.0°C (18°F)
Dewpoint: -10.0°C (14°F) [RH = 85%]
Pressure (altimeter): 29.56 inches Hg (1001.0 mb)
Winds: variable direction winds at 2 MPH (2 knots; 1.0 m/s)
Visibility: 6 or more miles (10+ km)
Ceiling: at least 12,000 feet AGL
Clouds: scattered clouds at 15000 feet AGL
Weather: no significant weather observed at this time

METAR text: LOWI 222150Z VRB02KT CAVOK M08/M10 Q1002 R08/19//95 NOSIG
Conditions at: LOWI (INNSBRUCK AIRPOR, AT) observed 2150 UTC 22 January 2019
Temperature: -8.0°C (18°F)
Dewpoint: -10.0°C (14°F) [RH = 85%]
Pressure (altimeter): 29.59 inches Hg (1002.0 mb)
Winds: variable direction winds at 2 MPH (2 knots; 1.0 m/s)
Visibility: 6 or more miles (10+ km)
Ceiling: ceiling and visibility are OK
Clouds: unknown
Weather: no significant weather observed at this time

METAR text: LOWI 222120Z VRB01KT CAVOK M08/M10 Q1002 R08/19//95 NOSIG
Conditions at: LOWI (INNSBRUCK AIRPOR, AT) observed 2120 UTC 22 January 2019
Temperature: -8.0°C (18°F)
Dewpoint: -10.0°C (14°F) [RH = 85%]
Pressure (altimeter): 29.59 inches Hg (1002.0 mb)
Winds: variable direction winds at 1 MPH (1 knots; 0.5 m/s)
Visibility: 6 or more miles (10+ km)
Ceiling: ceiling and visibility are OK
Clouds: unknown
Weather: no significant weather observed at this time

METAR text: LOWI 222050Z VRB01KT CAVOK M08/M10 Q1002 R08/19//95 NOSIG
Conditions at: LOWI (INNSBRUCK AIRPOR, AT) observed 2050 UTC 22 January 2019
Temperature: -8.0°C (18°F)
Dewpoint: -10.0°C (14°F) [RH = 85%]
Pressure (altimeter): 29.59 inches Hg (1002.0 mb)
Winds: variable direction winds at 1 MPH (1 knots; 0.5 m/s)
Visibility: 6 or more miles (10+ km)
Ceiling: ceiling and visibility are OK
Clouds: unknown
Weather: no significant weather observed at this time

METAR text: LOWI 222020Z 27002KT CAVOK M08/M10 Q1003 R08/19//95 NOSIG
Conditions at: LOWI (INNSBRUCK AIRPOR, AT) observed 2020 UTC 22 January 2019
Temperature: -8.0°C (18°F)
Dewpoint: -10.0°C (14°F) [RH = 85%]
Pressure (altimeter): 29.62 inches Hg (1003.0 mb)
Winds: from the W (270 degrees) at 2 MPH (2 knots; 1.0 m/s)
Visibility: 6 or more miles (10+ km)
Ceiling: ceiling and visibility are OK
Clouds: unknown
Weather: no significant weather observed at this time

METAR text: LOWI 221950Z 28002KT CAVOK M07/M10 Q1003 R08/19//95 NOSIG
Conditions at: LOWI (INNSBRUCK AIRPOR, AT) observed 1950 UTC 22 January 2019
Temperature: -7.0°C (19°F)
Dewpoint: -10.0°C (14°F) [RH = 79%]
Pressure (altimeter): 29.62 inches Hg (1003.0 mb)
Winds: from the W (280 degrees) at 2 MPH (2 knots; 1.0 m/s)
Visibility: 6 or more miles (10+ km)
Ceiling: ceiling and visibility are OK
Clouds: unknown
Weather: no significant weather observed at this time

METAR text: LOWI 221920Z VRB01KT CAVOK M07/M10 Q1003 R08/19//95 NOSIG
Conditions at: LOWI (INNSBRUCK AIRPOR, AT) observed 1920 UTC 22 January 2019
Temperature: -7.0°C (19°F)
Dewpoint: -10.0°C (14°F) [RH = 79%]
Pressure (altimeter): 29.62 inches Hg (1003.0 mb)
Winds: variable direction winds at 1 MPH (1 knots; 0.5 m/s)
Visibility: 6 or more miles (10+ km)
Ceiling: ceiling and visibility are OK
Clouds: unknown
Weather: no significant weather observed at this time

METAR text: LOWI 221850Z VRB01KT CAVOK M07/M10 Q1003 R08/19//95 NOSIG
Conditions at: LOWI (INNSBRUCK AIRPOR, AT) observed 1850 UTC 22 January 2019
Temperature: -7.0°C (19°F)
Dewpoint: -10.0°C (14°F) [RH = 79%]
Pressure (altimeter): 29.62 inches Hg (1003.0 mb)
Winds: variable direction winds at 1 MPH (1 knots; 0.5 m/s)
Visibility: 6 or more miles (10+ km)
Ceiling: ceiling and visibility are OK
Clouds: unknown
Weather: no significant weather observed at this time

METAR text: LOWI 221820Z VRB01KT CAVOK M07/M10 Q1004 R08/19//95 NOSIG
Conditions at: LOWI (INNSBRUCK AIRPOR, AT) observed 1820 UTC 22 January 2019
Temperature: -7.0°C (19°F)
Dewpoint: -10.0°C (14°F) [RH = 79%]
Pressure (altimeter): 29.65 inches Hg (1004.0 mb)
Winds: variable direction winds at 1 MPH (1 knots; 0.5 m/s)
Visibility: 6 or more miles (10+ km)
Ceiling: ceiling and visibility are OK
Clouds: unknown
Weather: no significant weather observed at this time

METAR text: LOWI 221750Z VRB01KT CAVOK M06/M10 Q1004 R08/19//95 NOSIG
Conditions at: LOWI (INNSBRUCK AIRPOR, AT) observed 1750 UTC 22 January 2019
Temperature: -6.0°C (21°F)
Dewpoint: -10.0°C (14°F) [RH = 73%]
Pressure (altimeter): 29.65 inches Hg (1004.0 mb)
Winds: variable direction winds at 1 MPH (1 knots; 0.5 m/s)
Visibility: 6 or more miles (10+ km)
Ceiling: ceiling and visibility are OK
Clouds: unknown
Weather: no significant weather observed at this time

METAR text: LOWI 221720Z 24003KT 210V270 CAVOK M05/M09 Q1004 R08/19//95 NOSIG
Conditions at: LOWI (INNSBRUCK AIRPOR, AT) observed 1720 UTC 22 January 2019
Temperature: -5.0°C (23°F)
Dewpoint: -9.0°C (16°F) [RH = 73%]
Pressure (altimeter): 29.65 inches Hg (1004.0 mb)
Winds: from the WSW (240 degrees) at 3 MPH (3 knots; 1.5 m/s)
Visibility: 6 or more miles (10+ km)
Ceiling: ceiling and visibility are OK
Clouds: unknown
Weather: no significant weather observed at this time

METAR text: LOWI 221650Z VRB01KT CAVOK M05/M09 Q1004 R08/19//95 NOSIG
Conditions at: LOWI (INNSBRUCK AIRPOR, AT) observed 1650 UTC 22 January 2019
Temperature: -5.0°C (23°F)
Dewpoint: -9.0°C (16°F) [RH = 73%]
Pressure (altimeter): 29.65 inches Hg (1004.0 mb)
Winds: variable direction winds at 1 MPH (1 knots; 0.5 m/s)
Visibility: 6 or more miles (10+ km)
Ceiling: ceiling and visibility are OK
Clouds: unknown
Weather: no significant weather observed at this time

METAR text: LOWI 221620Z VRB01KT CAVOK M04/M09 Q1004 R08/19//95 NOSIG
Conditions at: LOWI (INNSBRUCK AIRPOR, AT) observed 1620 UTC 22 January 2019
Temperature: -4.0°C (25°F)
Dewpoint: -9.0°C (16°F) [RH = 68%]
Pressure (altimeter): 29.65 inches Hg (1004.0 mb)
Winds: variable direction winds at 1 MPH (1 knots; 0.5 m/s)
Visibility: 6 or more miles (10+ km)
Ceiling: ceiling and visibility are OK
Clouds: unknown
Weather: no significant weather observed at this time

METAR text: LOWI 221550Z 25003KT CAVOK M03/M09 Q1005 R08/19//95 NOSIG
Conditions at: LOWI (INNSBRUCK AIRPOR, AT) observed 1550 UTC 22 January 2019
Temperature: -3.0°C (27°F)
Dewpoint: -9.0°C (16°F) [RH = 63%]
Pressure (altimeter): 29.68 inches Hg (1005.0 mb)
Winds: from the WSW (250 degrees) at 3 MPH (3 knots; 1.5 m/s)
Visibility: 6 or more miles (10+ km)
Ceiling: ceiling and visibility are OK
Clouds: unknown
Weather: no significant weather observed at this time

METAR text: LOWI 221520Z VRB02KT CAVOK M02/M08 Q1005 R08/19//95 NOSIG
Conditions at: LOWI (INNSBRUCK AIRPOR, AT) observed 1520 UTC 22 January 2019
Temperature: -2.0°C (28°F)
Dewpoint: -8.0°C (18°F) [RH = 63%]
Pressure (altimeter): 29.68 inches Hg (1005.0 mb)
Winds: variable direction winds at 2 MPH (2 knots; 1.0 m/s)
Visibility: 6 or more miles (10+ km)
Ceiling: ceiling and visibility are OK
Clouds: unknown
Weather: no significant weather observed at this time

METAR text: LOWI 221450Z VRB02KT CAVOK M00/M09 Q1005 R08/19//95 NOSIG
Conditions at: LOWI (INNSBRUCK AIRPOR, AT) observed 1450 UTC 22 January 2019
Temperature: 0.0°C (32°F)
Dewpoint: -9.0°C (16°F) [RH = 51%]
Pressure (altimeter): 29.68 inches Hg (1005.0 mb)
Winds: variable direction winds at 2 MPH (2 knots; 1.0 m/s)
Visibility: 6 or more miles (10+ km)
Ceiling: ceiling and visibility are OK
Clouds: unknown
Weather: no significant weather observed at this time

METAR text: LOWI 221420Z 22003KT CAVOK 00/M09 Q1006 R08/19//95 NOSIG
Conditions at: LOWI (INNSBRUCK AIRPOR, AT) observed 1420 UTC 22 January 2019
Temperature: 0.0°C (32°F)
Dewpoint: -9.0°C (16°F) [RH = 51%]
Pressure (altimeter): 29.70 inches Hg (1006.0 mb)
Winds: from the SW (220 degrees) at 3 MPH (3 knots; 1.5 m/s)
Visibility: 6 or more miles (10+ km)
Ceiling: ceiling and visibility are OK
Clouds: unknown
Weather: no significant weather observed at this time

METAR text: LOWI 221350Z VRB02KT CAVOK 00/M09 Q1006 R08/19//95 NOSIG
Conditions at: LOWI (INNSBRUCK AIRPOR, AT) observed 1350 UTC 22 January 2019
Temperature: 0.0°C (32°F)
Dewpoint: -9.0°C (16°F) [RH = 51%]
Pressure (altimeter): 29.70 inches Hg (1006.0 mb)
Winds: variable direction winds at 2 MPH (2 knots; 1.0 m/s)
Visibility: 6 or more miles (10+ km)
Ceiling: ceiling and visibility are OK
Clouds: unknown
Weather: no significant weather observed at this time

METAR text: LOWI 221320Z VRB01KT CAVOK 01/M09 Q1007 R08/19//95 NOSIG
Conditions at: LOWI (INNSBRUCK AIRPOR, AT) observed 1320 UTC 22 January 2019
Temperature: 1.0°C (34°F)
Dewpoint: -9.0°C (16°F) [RH = 47%]
Pressure (altimeter): 29.73 inches Hg (1007.0 mb)
Winds: variable direction winds at 1 MPH (1 knots; 0.5 m/s)
Visibility: 6 or more miles (10+ km)
Ceiling: ceiling and visibility are OK
Clouds: unknown
Weather: no significant weather observed at this time

METAR text: LOWI 221250Z VRB01KT CAVOK M00/M09 Q1007 R08/19//95 NOSIG
Conditions at: LOWI (INNSBRUCK AIRPOR, AT) observed 1250 UTC 22 January 2019
Temperature: 0.0°C (32°F)
Dewpoint: -9.0°C (16°F) [RH = 51%]
Pressure (altimeter): 29.73 inches Hg (1007.0 mb)
Winds: variable direction winds at 1 MPH (1 knots; 0.5 m/s)
Visibility: 6 or more miles (10+ km)
Ceiling: ceiling and visibility are OK
Clouds: unknown
Weather: no significant weather observed at this time

METAR text: LOWI 221220Z 27002KT CAVOK M00/M09 Q1008 R08/19//95 NOSIG
Conditions at: LOWI (INNSBRUCK AIRPOR, AT) observed 1220 UTC 22 January 2019
Temperature: 0.0°C (32°F)
Dewpoint: -9.0°C (16°F) [RH = 51%]
Pressure (altimeter): 29.76 inches Hg (1008.0 mb)
Winds: from the W (270 degrees) at 2 MPH (2 knots; 1.0 m/s)
Visibility: 6 or more miles (10+ km)
Ceiling: ceiling and visibility are OK
Clouds: unknown
Weather: no significant weather observed at this time

METAR text: LOWI 221150Z 29002KT CAVOK M01/M10 Q1009 R08/19//95 NOSIG
Conditions at: LOWI (INNSBRUCK AIRPOR, AT) observed 1150 UTC 22 January 2019
Temperature: -1.0°C (30°F)
Dewpoint: -10.0°C (14°F) [RH = 50%]
Pressure (altimeter): 29.79 inches Hg (1009.0 mb)
Winds: from the WNW (290 degrees) at 2 MPH (2 knots; 1.0 m/s)
Visibility: 6 or more miles (10+ km)
Ceiling: ceiling and visibility are OK
Clouds: unknown
Weather: no significant weather observed at this time

METAR text: LOWI 221120Z 27003KT CAVOK M02/M10 Q1010 R08/19//95 NOSIG
Conditions at: LOWI (INNSBRUCK AIRPOR, AT) observed 1120 UTC 22 January 2019
Temperature: -2.0°C (28°F)
Dewpoint: -10.0°C (14°F) [RH = 54%]
Pressure (altimeter): 29.82 inches Hg (1010.0 mb)
Winds: from the W (270 degrees) at 3 MPH (3 knots; 1.5 m/s)
Visibility: 6 or more miles (10+ km)
Ceiling: ceiling and visibility are OK
Clouds: unknown
Weather: no significant weather observed at this time

METAR text: LOWI 221050Z 26005KT CAVOK M03/M10 Q1010 R08/19//95 NOSIG
Conditions at: LOWI (INNSBRUCK AIRPOR, AT) observed 1050 UTC 22 January 2019
Temperature: -3.0°C (27°F)
Dewpoint: -10.0°C (14°F) [RH = 58%]
Pressure (altimeter): 29.82 inches Hg (1010.0 mb)
Winds: from the W (260 degrees) at 6 MPH (5 knots; 2.6 m/s)
Visibility: 6 or more miles (10+ km)
Ceiling: ceiling and visibility are OK
Clouds: unknown
Weather: no significant weather observed at this time

METAR text: LOWI 221020Z 26005KT CAVOK M03/M10 Q1011 R08/19//95 NOSIG
Conditions at: LOWI (INNSBRUCK AIRPOR, AT) observed 1020 UTC 22 January 2019
Temperature: -3.0°C (27°F)
Dewpoint: -10.0°C (14°F) [RH = 58%]
Pressure (altimeter): 29.85 inches Hg (1011.0 mb)
Winds: from the W (260 degrees) at 6 MPH (5 knots; 2.6 m/s)
Visibility: 6 or more miles (10+ km)
Ceiling: ceiling and visibility are OK
Clouds: unknown
Weather: no significant weather observed at this time

METAR text: LOWI 220950Z 25004KT 220V280 CAVOK M04/M10 Q1011 R08/19//95 NOSIG
Conditions at: LOWI (INNSBRUCK AIRPOR, AT) observed 0950 UTC 22 January 2019
Temperature: -4.0°C (25°F)
Dewpoint: -10.0°C (14°F) [RH = 63%]
Pressure (altimeter): 29.85 inches Hg (1011.0 mb)
Winds: from the WSW (250 degrees) at 5 MPH (4 knots; 2.1 m/s)
Visibility: 6 or more miles (10+ km)
Ceiling: ceiling and visibility are OK
Clouds: unknown
Weather: no significant weather observed at this time

METAR text: LOWI 220920Z 26003KT CAVOK M04/M10 Q1012 R08/19//95 NOSIG
Conditions at: LOWI (INNSBRUCK AIRPOR, AT) observed 0920 UTC 22 January 2019
Temperature: -4.0°C (25°F)
Dewpoint: -10.0°C (14°F) [RH = 63%]
Pressure (altimeter): 29.88 inches Hg (1012.0 mb)
Winds: from the W (260 degrees) at 3 MPH (3 knots; 1.5 m/s)
Visibility: 6 or more miles (10+ km)
Ceiling: ceiling and visibility are OK
Clouds: unknown
Weather: no significant weather observed at this time

METAR text: LOWI 220850Z VRB01KT CAVOK M04/M09 Q1012 R08/19//95 NOSIG
Conditions at: LOWI (INNSBRUCK AIRPOR, AT) observed 0850 UTC 22 January 2019
Temperature: -4.0°C (25°F)
Dewpoint: -9.0°C (16°F) [RH = 68%]
Pressure (altimeter): 29.88 inches Hg (1012.0 mb)
Winds: variable direction winds at 1 MPH (1 knots; 0.5 m/s)
Visibility: 6 or more miles (10+ km)
Ceiling: ceiling and visibility are OK
Clouds: unknown
Weather: no significant weather observed at this time

METAR text: LOWI 220820Z VRB01KT CAVOK M06/M09 Q1012 R08/19//95 NOSIG
Conditions at: LOWI (INNSBRUCK AIRPOR, AT) observed 0820 UTC 22 January 2019
Temperature: -6.0°C (21°F)
Dewpoint: -9.0°C (16°F) [RH = 79%]
Pressure (altimeter): 29.88 inches Hg (1012.0 mb)
Winds: variable direction winds at 1 MPH (1 knots; 0.5 m/s)
Visibility: 6 or more miles (10+ km)
Ceiling: ceiling and visibility are OK
Clouds: unknown
Weather: no significant weather observed at this time

METAR text: LOWI 220750Z VRB01KT CAVOK M08/M10 Q1013 R08/19//95 NOSIG
Conditions at: LOWI (INNSBRUCK AIRPOR, AT) observed 0750 UTC 22 January 2019
Temperature: -8.0°C (18°F)
Dewpoint: -10.0°C (14°F) [RH = 85%]
Pressure (altimeter): 29.91 inches Hg (1013.0 mb)
Winds: variable direction winds at 1 MPH (1 knots; 0.5 m/s)
Visibility: 6 or more miles (10+ km)
Ceiling: ceiling and visibility are OK
Clouds: unknown
Weather: no significant weather observed at this time

METAR text: LOWI 220720Z VRB01KT CAVOK M08/M10 Q1013 R08/19//95 NOSIG
Conditions at: LOWI (INNSBRUCK AIRPOR, AT) observed 0720 UTC 22 January 2019
Temperature: -8.0°C (18°F)
Dewpoint: -10.0°C (14°F) [RH = 85%]
Pressure (altimeter): 29.91 inches Hg (1013.0 mb)
Winds: variable direction winds at 1 MPH (1 knots; 0.5 m/s)
Visibility: 6 or more miles (10+ km)
Ceiling: ceiling and visibility are OK
Clouds: unknown
Weather: no significant weather observed at this time

METAR text: LOWI 220650Z VRB01KT CAVOK M08/M09 Q1013 R08/19//95 NOSIG
Conditions at: LOWI (INNSBRUCK AIRPOR, AT) observed 0650 UTC 22 January 2019
Temperature: -8.0°C (18°F)
Dewpoint: -9.0°C (16°F) [RH = 92%]
Pressure (altimeter): 29.91 inches Hg (1013.0 mb)
Winds: variable direction winds at 1 MPH (1 knots; 0.5 m/s)
Visibility: 6 or more miles (10+ km)
Ceiling: ceiling and visibility are OK
Clouds: unknown
Weather: no significant weather observed at this time

METAR text: LOWI 220620Z VRB01KT CAVOK M08/M10 Q1013 R08/19//95 NOSIG
Conditions at: LOWI (INNSBRUCK AIRPOR, AT) observed 0620 UTC 22 January 2019
Temperature: -8.0°C (18°F)
Dewpoint: -10.0°C (14°F) [RH = 85%]
Pressure (altimeter): 29.91 inches Hg (1013.0 mb)
Winds: variable direction winds at 1 MPH (1 knots; 0.5 m/s)
Visibility: 6 or more miles (10+ km)
Ceiling: ceiling and visibility are OK
Clouds: unknown
Weather: no significant weather observed at this time

METAR text: LOWI 220550Z VRB02KT CAVOK M08/M11 Q1013 R08/19//95 NOSIG
Conditions at: LOWI (INNSBRUCK AIRPOR, AT) observed 0550 UTC 22 January 2019
Temperature: -8.0°C (18°F)
Dewpoint: -11.0°C (12°F) [RH = 79%]
Pressure (altimeter): 29.91 inches Hg (1013.0 mb)
Winds: variable direction winds at 2 MPH (2 knots; 1.0 m/s)
Visibility: 6 or more miles (10+ km)
Ceiling: ceiling and visibility are OK
Clouds: unknown
Weather: no significant weather observed at this time

METAR text: LOWI 220520Z VRB01KT CAVOK M06/M08 Q1013 R08/19//95 NOSIG
Conditions at: LOWI (INNSBRUCK AIRPOR, AT) observed 0520 UTC 22 January 2019
Temperature: -6.0°C (21°F)
Dewpoint: -8.0°C (18°F) [RH = 86%]
Pressure (altimeter): 29.91 inches Hg (1013.0 mb)
Winds: variable direction winds at 1 MPH (1 knots; 0.5 m/s)
Visibility: 6 or more miles (10+ km)
Ceiling: ceiling and visibility are OK
Clouds: unknown
Weather: no significant weather observed at this time

METAR text: LOWI 220450Z VRB01KT CAVOK M06/M09 Q1013 R08/19//95 NOSIG
Conditions at: LOWI (INNSBRUCK AIRPOR, AT) observed 0450 UTC 22 January 2019
Temperature: -6.0°C (21°F)
Dewpoint: -9.0°C (16°F) [RH = 79%]
Pressure (altimeter): 29.91 inches Hg (1013.0 mb)
Winds: variable direction winds at 1 MPH (1 knots; 0.5 m/s)
Visibility: 6 or more miles (10+ km)
Ceiling: ceiling and visibility are OK
Clouds: unknown
Weather: no significant weather observed at this time

METAR text: LOWI 220420Z AUTO 28003KT 9999 NSC M05/M08 Q1014
Conditions at: LOWI (INNSBRUCK AIRPOR, AT) observed 0420 UTC 22 January 2019
Temperature: -5.0°C (23°F)
Dewpoint: -8.0°C (18°F) [RH = 79%]
Pressure (altimeter): 29.94 inches Hg (1014.0 mb)
Winds: from the W (280 degrees) at 3 MPH (3 knots; 1.5 m/s)
Visibility: 6 or more miles (10+ km)
Ceiling: at least 12,000 feet AGL
Clouds: sky clear below 12,000 feet AGL
Weather: no significant weather observed at this time

METAR text: LOWI 220350Z AUTO 26003KT 220V300 9999 NSC M04/M07 Q1014
Conditions at: LOWI (INNSBRUCK AIRPOR, AT) observed 0350 UTC 22 January 2019
Temperature: -4.0°C (25°F)
Dewpoint: -7.0°C (19°F) [RH = 80%]
Pressure (altimeter): 29.94 inches Hg (1014.0 mb)
Winds: from the W (260 degrees) at 3 MPH (3 knots; 1.5 m/s)
Visibility: 6 or more miles (10+ km)
Ceiling: at least 12,000 feet AGL
Clouds: sky clear below 12,000 feet AGL
Weather: no significant weather observed at this time

METAR text: LOWI 220320Z AUTO 26003KT 9999 FEW050 M04/M07 Q1014
Conditions at: LOWI (INNSBRUCK AIRPOR, AT) observed 0320 UTC 22 January 2019
Temperature: -4.0°C (25°F)
Dewpoint: -7.0°C (19°F) [RH = 80%]
Pressure (altimeter): 29.94 inches Hg (1014.0 mb)
Winds: from the W (260 degrees) at 3 MPH (3 knots; 1.5 m/s)
Visibility: 6 or more miles (10+ km)
Ceiling: at least 12,000 feet AGL
Clouds: few clouds at 5000 feet AGL
Weather: no significant weather observed at this time

METAR text: LOWI 220250Z AUTO VRB02KT 9999 BKN050 M04/M06 Q1014
Conditions at: LOWI (INNSBRUCK AIRPOR, AT) observed 0250 UTC 22 January 2019
Temperature: -4.0°C (25°F)
Dewpoint: -6.0°C (21°F) [RH = 86%]
Pressure (altimeter): 29.94 inches Hg (1014.0 mb)
Winds: variable direction winds at 2 MPH (2 knots; 1.0 m/s)
Visibility: 6 or more miles (10+ km)
Ceiling: 5000 feet AGL
Clouds: broken clouds at 5000 feet AGL
Weather: no significant weather observed at this time

METAR text: LOWI 220220Z AUTO VRB01KT 9999 BKN050 M03/M06 Q1015
Conditions at: LOWI (INNSBRUCK AIRPOR, AT) observed 0220 UTC 22 January 2019
Temperature: -3.0°C (27°F)
Dewpoint: -6.0°C (21°F) [RH = 80%]
Pressure (altimeter): 29.97 inches Hg (1015.0 mb)
Winds: variable direction winds at 1 MPH (1 knots; 0.5 m/s)
Visibility: 6 or more miles (10+ km)
Ceiling: 5000 feet AGL
Clouds: broken clouds at 5000 feet AGL
Weather: no significant weather observed at this time

Forecast for: LOWI (INNSBRUCK AIRPOR, AT)
Text: TAF LOWI 231115Z 2312/2412 27005KT 9999 FEW080 BKN100 TXM02/2314Z TNM08/2406Z
Forecast period: 1200 UTC 23 January 2019 to 1200 UTC 24 January 2019
Forecast type: FROM: standard forecast or significant change
Winds: from the W (270 degrees) at 6 MPH (5 knots; 2.6 m/s)
Visibility: 6 or more miles 10+ km)
Ceiling: 10000 feet AGL
Clouds: few clouds at 8000 feet AGL
broken clouds at 10000 feet AGL
Weather: no significant weather forecast for this period